sensor_id;sensor_type;location;lat;lon;timestamp;temperature;humidity
47600;DHT22;33323;52.124;6.018;2023-04-21T00:00:29;7.90;99.90
47600;DHT22;33323;52.124;6.018;2023-04-21T00:02:57;8.00;99.90
47600;DHT22;33323;52.124;6.018;2023-04-21T00:05:24;7.90;99.90
47600;DHT22;33323;52.124;6.018;2023-04-21T00:07:51;7.90;99.90
47600;DHT22;33323;52.124;6.018;2023-04-21T00:10:18;7.90;99.90
47600;DHT22;33323;52.124;6.018;2023-04-21T00:12:45;7.90;99.90
47600;DHT22;33323;52.124;6.018;2023-04-21T00:15:12;7.90;99.90
47600;DHT22;33323;52.124;6.018;2023-04-21T00:17:39;7.90;99.90
47600;DHT22;33323;52.124;6.018;2023-04-21T00:20:07;7.90;99.90
47600;DHT22;33323;52.124;6.018;2023-04-21T00:22:36;7.80;99.90
47600;DHT22;33323;52.124;6.018;2023-04-21T00:25:03;7.80;99.90
47600;DHT22;33323;52.124;6.018;2023-04-21T00:27:31;7.90;99.90
47600;DHT22;33323;52.124;6.018;2023-04-21T00:29:58;7.80;99.90
47600;DHT22;33323;52.124;6.018;2023-04-21T00:32:25;7.90;99.90
47600;DHT22;33323;52.124;6.018;2023-04-21T00:34:51;7.90;99.90
47600;DHT22;33323;52.124;6.018;2023-04-21T00:37:18;7.90;99.90
47600;DHT22;33323;52.124;6.018;2023-04-21T00:39:45;7.90;99.90
47600;DHT22;33323;52.124;6.018;2023-04-21T00:42:14;7.90;99.90
47600;DHT22;33323;52.124;6.018;2023-04-21T00:44:42;7.90;99.90
47600;DHT22;33323;52.124;6.018;2023-04-21T00:47:09;7.90;99.90
47600;DHT22;33323;52.124;6.018;2023-04-21T00:49:37;7.90;99.90
47600;DHT22;33323;52.124;6.018;2023-04-21T00:52:04;7.90;99.90
47600;DHT22;33323;52.124;6.018;2023-04-21T00:54:34;7.90;99.90
47600;DHT22;33323;52.124;6.018;2023-04-21T00:57:01;7.90;99.90
47600;DHT22;33323;52.124;6.018;2023-04-21T00:59:29;8.00;99.90
47600;DHT22;33323;52.124;6.018;2023-04-21T01:01:56;8.00;99.90
47600;DHT22;33323;52.124;6.018;2023-04-21T01:04:24;8.00;99.90
47600;DHT22;33323;52.124;6.018;2023-04-21T01:06:51;8.00;99.90
47600;DHT22;33323;52.124;6.018;2023-04-21T01:09:19;8.00;99.90
47600;DHT22;33323;52.124;6.018;2023-04-21T01:12:03;8.00;99.90
47600;DHT22;33323;52.124;6.018;2023-04-21T01:14:33;8.00;99.90
47600;DHT22;33323;52.124;6.018;2023-04-21T01:17:02;8.10;99.90
47600;DHT22;33323;52.124;6.018;2023-04-21T01:19:39;8.10;99.90
47600;DHT22;33323;52.124;6.018;2023-04-21T01:22:11;8.20;99.90
47600;DHT22;33323;52.124;6.018;2023-04-21T01:24:44;8.20;99.90
47600;DHT22;33323;52.124;6.018;2023-04-21T01:27:15;8.10;99.90
47600;DHT22;33323;52.124;6.018;2023-04-21T01:29:47;8.20;99.90
47600;DHT22;33323;52.124;6.018;2023-04-21T01:32:23;8.20;99.90
47600;DHT22;33323;52.124;6.018;2023-04-21T01:34:53;8.20;99.90
47600;DHT22;33323;52.124;6.018;2023-04-21T01:37:24;8.20;99.90
47600;DHT22;33323;52.124;6.018;2023-04-21T01:39:55;8.20;99.90
47600;DHT22;33323;52.124;6.018;2023-04-21T01:42:25;8.20;99.90
47600;DHT22;33323;52.124;6.018;2023-04-21T01:44:57;8.30;99.90
47600;DHT22;33323;52.124;6.018;2023-04-21T01:47:24;8.30;99.90
47600;DHT22;33323;52.124;6.018;2023-04-21T01:49:51;8.30;99.90
47600;DHT22;33323;52.124;6.018;2023-04-21T01:52:19;8.30;99.90
47600;DHT22;33323;52.124;6.018;2023-04-21T01:54:47;8.30;99.90
47600;DHT22;33323;52.124;6.018;2023-04-21T01:57:15;8.30;99.90
47600;DHT22;33323;52.124;6.018;2023-04-21T01:59:43;8.30;99.90
47600;DHT22;33323;52.124;6.018;2023-04-21T02:02:10;8.30;99.90
47600;DHT22;33323;52.124;6.018;2023-04-21T02:04:37;8.30;99.90
47600;DHT22;33323;52.124;6.018;2023-04-21T02:07:05;8.40;99.90
47600;DHT22;33323;52.124;6.018;2023-04-21T02:09:32;8.30;99.90
47600;DHT22;33323;52.124;6.018;2023-04-21T02:11:59;8.30;99.90
47600;DHT22;33323;52.124;6.018;2023-04-21T02:14:27;8.30;99.90
47600;DHT22;33323;52.124;6.018;2023-04-21T02:16:54;8.30;99.90
47600;DHT22;33323;52.124;6.018;2023-04-21T02:19:22;8.30;99.90
47600;DHT22;33323;52.124;6.018;2023-04-21T02:21:49;8.40;99.90
47600;DHT22;33323;52.124;6.018;2023-04-21T02:24:16;8.40;99.90
47600;DHT22;33323;52.124;6.018;2023-04-21T02:26:44;8.40;99.90
47600;DHT22;33323;52.124;6.018;2023-04-21T02:29:12;8.50;99.90
47600;DHT22;33323;52.124;6.018;2023-04-21T02:31:39;8.50;99.90
47600;DHT22;33323;52.124;6.018;2023-04-21T02:34:26;8.50;99.90
47600;DHT22;33323;52.124;6.018;2023-04-21T02:36:53;8.50;99.90
47600;DHT22;33323;52.124;6.018;2023-04-21T02:39:20;8.50;99.90
47600;DHT22;33323;52.124;6.018;2023-04-21T02:41:47;8.50;99.90
47600;DHT22;33323;52.124;6.018;2023-04-21T02:44:14;8.50;99.90
47600;DHT22;33323;52.124;6.018;2023-04-21T02:46:41;8.50;99.90
47600;DHT22;33323;52.124;6.018;2023-04-21T02:49:09;8.50;99.90
47600;DHT22;33323;52.124;6.018;2023-04-21T02:51:36;8.40;99.90
47600;DHT22;33323;52.124;6.018;2023-04-21T02:54:03;8.40;99.90
47600;DHT22;33323;52.124;6.018;2023-04-21T02:56:30;8.30;99.90
47600;DHT22;33323;52.124;6.018;2023-04-21T02:59:00;8.30;99.90
47600;DHT22;33323;52.124;6.018;2023-04-21T03:01:27;8.30;99.90
47600;DHT22;33323;52.124;6.018;2023-04-21T03:03:54;8.30;99.90
47600;DHT22;33323;52.124;6.018;2023-04-21T03:06:21;8.20;99.90
47600;DHT22;33323;52.124;6.018;2023-04-21T03:08:48;8.20;99.90
47600;DHT22;33323;52.124;6.018;2023-04-21T03:11:15;8.20;99.90
47600;DHT22;33323;52.124;6.018;2023-04-21T03:13:44;8.20;99.90
47600;DHT22;33323;52.124;6.018;2023-04-21T03:16:11;8.10;99.90
47600;DHT22;33323;52.124;6.018;2023-04-21T03:18:39;8.10;99.90
47600;DHT22;33323;52.124;6.018;2023-04-21T03:21:06;8.10;99.90
47600;DHT22;33323;52.124;6.018;2023-04-21T03:23:33;8.00;99.90
47600;DHT22;33323;52.124;6.018;2023-04-21T03:26:00;8.00;99.90
47600;DHT22;33323;52.124;6.018;2023-04-21T03:28:27;8.00;99.90
47600;DHT22;33323;52.124;6.018;2023-04-21T03:30:53;8.00;99.90
47600;DHT22;33323;52.124;6.018;2023-04-21T03:33:20;8.00;99.90
47600;DHT22;33323;52.124;6.018;2023-04-21T03:35:47;8.00;99.90
47600;DHT22;33323;52.124;6.018;2023-04-21T03:38:14;8.10;99.90
47600;DHT22;33323;52.124;6.018;2023-04-21T03:40:41;8.00;99.90
47600;DHT22;33323;52.124;6.018;2023-04-21T03:43:08;8.00;99.90
47600;DHT22;33323;52.124;6.018;2023-04-21T03:45:37;8.10;99.90
47600;DHT22;33323;52.124;6.018;2023-04-21T03:48:04;8.10;99.90
47600;DHT22;33323;52.124;6.018;2023-04-21T03:50:31;8.10;99.90
47600;DHT22;33323;52.124;6.018;2023-04-21T03:52:58;8.00;99.90
47600;DHT22;33323;52.124;6.018;2023-04-21T03:55:25;8.00;99.90
47600;DHT22;33323;52.124;6.018;2023-04-21T03:57:52;8.00;99.90
47600;DHT22;33323;52.124;6.018;2023-04-21T04:00:19;8.00;99.90
47600;DHT22;33323;52.124;6.018;2023-04-21T04:02:46;8.00;99.90
47600;DHT22;33323;52.124;6.018;2023-04-21T04:05:14;8.00;99.90
47600;DHT22;33323;52.124;6.018;2023-04-21T04:07:41;8.00;99.90
47600;DHT22;33323;52.124;6.018;2023-04-21T04:10:08;8.00;99.90
47600;DHT22;33323;52.124;6.018;2023-04-21T04:12:35;8.00;99.90
47600;DHT22;33323;52.124;6.018;2023-04-21T04:15:02;8.00;99.90
47600;DHT22;33323;52.124;6.018;2023-04-21T04:17:29;8.00;99.90
47600;DHT22;33323;52.124;6.018;2023-04-21T04:19:56;8.00;99.90
47600;DHT22;33323;52.124;6.018;2023-04-21T04:22:23;8.00;99.90
47600;DHT22;33323;52.124;6.018;2023-04-21T04:24:50;8.00;99.90
47600;DHT22;33323;52.124;6.018;2023-04-21T04:27:18;8.00;99.90
47600;DHT22;33323;52.124;6.018;2023-04-21T04:29:46;8.00;99.90
47600;DHT22;33323;52.124;6.018;2023-04-21T04:32:15;8.00;99.90
47600;DHT22;33323;52.124;6.018;2023-04-21T04:34:42;8.00;99.90
47600;DHT22;33323;52.124;6.018;2023-04-21T04:37:09;8.00;99.90
47600;DHT22;33323;52.124;6.018;2023-04-21T04:39:36;8.00;99.90
47600;DHT22;33323;52.124;6.018;2023-04-21T04:42:06;8.00;99.90
47600;DHT22;33323;52.124;6.018;2023-04-21T04:44:37;8.00;99.90
47600;DHT22;33323;52.124;6.018;2023-04-21T04:47:04;8.00;99.90
47600;DHT22;33323;52.124;6.018;2023-04-21T04:49:32;8.00;99.90
47600;DHT22;33323;52.124;6.018;2023-04-21T04:51:58;8.00;99.90
47600;DHT22;33323;52.124;6.018;2023-04-21T04:54:27;8.00;99.90
47600;DHT22;33323;52.124;6.018;2023-04-21T04:56:54;8.00;99.90
47600;DHT22;33323;52.124;6.018;2023-04-21T04:59:23;8.00;99.90
47600;DHT22;33323;52.124;6.018;2023-04-21T05:01:50;8.00;99.90
47600;DHT22;33323;52.124;6.018;2023-04-21T05:04:18;8.00;99.90
47600;DHT22;33323;52.124;6.018;2023-04-21T05:06:46;8.00;99.90
47600;DHT22;33323;52.124;6.018;2023-04-21T05:09:13;8.00;99.90
47600;DHT22;33323;52.124;6.018;2023-04-21T05:11:40;8.10;99.90
47600;DHT22;33323;52.124;6.018;2023-04-21T05:14:07;8.10;99.90
47600;DHT22;33323;52.124;6.018;2023-04-21T05:16:34;8.10;99.90
47600;DHT22;33323;52.124;6.018;2023-04-21T05:19:02;8.10;99.90
47600;DHT22;33323;52.124;6.018;2023-04-21T05:21:29;8.10;99.90
47600;DHT22;33323;52.124;6.018;2023-04-21T05:23:57;8.10;99.90
47600;DHT22;33323;52.124;6.018;2023-04-21T05:26:25;8.10;99.90
47600;DHT22;33323;52.124;6.018;2023-04-21T05:28:57;8.10;99.90
47600;DHT22;33323;52.124;6.018;2023-04-21T05:31:24;8.10;99.90
47600;DHT22;33323;52.124;6.018;2023-04-21T05:33:52;8.10;99.90
47600;DHT22;33323;52.124;6.018;2023-04-21T05:36:19;8.10;99.90
47600;DHT22;33323;52.124;6.018;2023-04-21T05:38:46;8.20;99.90
47600;DHT22;33323;52.124;6.018;2023-04-21T05:41:13;8.20;99.90
47600;DHT22;33323;52.124;6.018;2023-04-21T05:43:40;8.20;99.90
47600;DHT22;33323;52.124;6.018;2023-04-21T05:46:10;8.20;99.90
47600;DHT22;33323;52.124;6.018;2023-04-21T05:48:37;8.20;99.90
47600;DHT22;33323;52.124;6.018;2023-04-21T05:51:11;8.20;99.90
47600;DHT22;33323;52.124;6.018;2023-04-21T05:53:39;8.20;99.90
47600;DHT22;33323;52.124;6.018;2023-04-21T05:56:08;8.30;99.90
47600;DHT22;33323;52.124;6.018;2023-04-21T05:58:36;8.30;99.90
47600;DHT22;33323;52.124;6.018;2023-04-21T06:01:04;8.30;99.90
47600;DHT22;33323;52.124;6.018;2023-04-21T06:03:32;8.40;99.90
47600;DHT22;33323;52.124;6.018;2023-04-21T06:06:03;8.40;99.90
47600;DHT22;33323;52.124;6.018;2023-04-21T06:08:32;8.40;99.90
47600;DHT22;33323;52.124;6.018;2023-04-21T06:10:59;8.50;99.90
47600;DHT22;33323;52.124;6.018;2023-04-21T06:13:27;8.50;99.90
47600;DHT22;33323;52.124;6.018;2023-04-21T06:15:54;8.50;99.90
47600;DHT22;33323;52.124;6.018;2023-04-21T06:18:21;8.60;99.90
47600;DHT22;33323;52.124;6.018;2023-04-21T06:20:53;8.60;99.90
47600;DHT22;33323;52.124;6.018;2023-04-21T06:23:21;8.70;99.90
47600;DHT22;33323;52.124;6.018;2023-04-21T06:26:17;8.70;99.90
47600;DHT22;33323;52.124;6.018;2023-04-21T06:28:44;8.80;99.90
47600;DHT22;33323;52.124;6.018;2023-04-21T06:31:12;8.90;99.90
47600;DHT22;33323;52.124;6.018;2023-04-21T06:33:42;8.90;99.90
47600;DHT22;33323;52.124;6.018;2023-04-21T06:36:09;8.90;99.90
47600;DHT22;33323;52.124;6.018;2023-04-21T06:38:36;9.00;99.90
47600;DHT22;33323;52.124;6.018;2023-04-21T06:41:05;9.00;99.90
47600;DHT22;33323;52.124;6.018;2023-04-21T06:43:32;9.00;99.90
47600;DHT22;33323;52.124;6.018;2023-04-21T06:45:59;9.00;99.90
47600;DHT22;33323;52.124;6.018;2023-04-21T06:48:26;9.00;99.90
47600;DHT22;33323;52.124;6.018;2023-04-21T06:50:55;9.10;99.90
47600;DHT22;33323;52.124;6.018;2023-04-21T06:53:22;9.10;99.90
47600;DHT22;33323;52.124;6.018;2023-04-21T06:55:49;9.10;99.90
47600;DHT22;33323;52.124;6.018;2023-04-21T06:58:16;9.00;99.90
47600;DHT22;33323;52.124;6.018;2023-04-21T07:00:46;9.10;99.90
47600;DHT22;33323;52.124;6.018;2023-04-21T07:03:13;9.20;99.90
47600;DHT22;33323;52.124;6.018;2023-04-21T07:05:41;9.20;99.90
47600;DHT22;33323;52.124;6.018;2023-04-21T07:08:08;9.30;99.90
47600;DHT22;33323;52.124;6.018;2023-04-21T07:10:35;9.30;99.90
47600;DHT22;33323;52.124;6.018;2023-04-21T07:13:02;9.30;99.90
47600;DHT22;33323;52.124;6.018;2023-04-21T07:15:29;9.40;99.90
47600;DHT22;33323;52.124;6.018;2023-04-21T07:17:56;9.40;99.90
47600;DHT22;33323;52.124;6.018;2023-04-21T07:20:24;9.50;99.90
47600;DHT22;33323;52.124;6.018;2023-04-21T07:22:51;9.60;99.90
47600;DHT22;33323;52.124;6.018;2023-04-21T07:25:18;9.70;99.90
47600;DHT22;33323;52.124;6.018;2023-04-21T07:27:45;9.70;99.90
47600;DHT22;33323;52.124;6.018;2023-04-21T07:30:12;9.60;99.90
47600;DHT22;33323;52.124;6.018;2023-04-21T07:32:39;9.60;99.90
47600;DHT22;33323;52.124;6.018;2023-04-21T07:35:07;9.60;99.90
47600;DHT22;33323;52.124;6.018;2023-04-21T07:37:34;9.60;99.90
47600;DHT22;33323;52.124;6.018;2023-04-21T07:40:01;9.60;99.90
47600;DHT22;33323;52.124;6.018;2023-04-21T07:42:29;9.60;99.90
47600;DHT22;33323;52.124;6.018;2023-04-21T07:44:56;9.60;99.90
47600;DHT22;33323;52.124;6.018;2023-04-21T07:47:23;9.60;99.90
47600;DHT22;33323;52.124;6.018;2023-04-21T07:49:50;9.70;99.90
47600;DHT22;33323;52.124;6.018;2023-04-21T07:52:17;9.70;99.90
47600;DHT22;33323;52.124;6.018;2023-04-21T07:54:45;9.70;99.90
47600;DHT22;33323;52.124;6.018;2023-04-21T07:57:12;9.80;99.90
47600;DHT22;33323;52.124;6.018;2023-04-21T07:59:39;9.90;99.90
47600;DHT22;33323;52.124;6.018;2023-04-21T08:02:06;9.90;99.90
47600;DHT22;33323;52.124;6.018;2023-04-21T08:04:34;9.90;99.90
47600;DHT22;33323;52.124;6.018;2023-04-21T08:07:01;9.90;99.90
47600;DHT22;33323;52.124;6.018;2023-04-21T08:09:28;9.90;99.90
47600;DHT22;33323;52.124;6.018;2023-04-21T08:11:55;10.00;99.90
47600;DHT22;33323;52.124;6.018;2023-04-21T08:14:23;10.00;99.90
47600;DHT22;33323;52.124;6.018;2023-04-21T08:16:52;10.10;99.90
47600;DHT22;33323;52.124;6.018;2023-04-21T08:19:22;10.10;99.90
47600;DHT22;33323;52.124;6.018;2023-04-21T08:21:49;10.10;99.90
47600;DHT22;33323;52.124;6.018;2023-04-21T08:24:16;10.00;99.90
47600;DHT22;33323;52.124;6.018;2023-04-21T08:26:44;10.10;99.90
47600;DHT22;33323;52.124;6.018;2023-04-21T08:29:11;10.10;99.90
47600;DHT22;33323;52.124;6.018;2023-04-21T08:31:39;10.10;99.90
47600;DHT22;33323;52.124;6.018;2023-04-21T08:34:07;10.20;99.90
47600;DHT22;33323;52.124;6.018;2023-04-21T08:36:34;10.20;99.90
47600;DHT22;33323;52.124;6.018;2023-04-21T08:39:01;10.20;99.90
47600;DHT22;33323;52.124;6.018;2023-04-21T08:41:28;10.20;99.90
47600;DHT22;33323;52.124;6.018;2023-04-21T08:43:55;10.40;99.90
47600;DHT22;33323;52.124;6.018;2023-04-21T08:46:22;10.40;99.90
47600;DHT22;33323;52.124;6.018;2023-04-21T08:48:50;10.40;99.90
47600;DHT22;33323;52.124;6.018;2023-04-21T08:51:22;10.40;99.90
47600;DHT22;33323;52.124;6.018;2023-04-21T08:53:50;10.40;99.90
47600;DHT22;33323;52.124;6.018;2023-04-21T08:56:17;10.50;99.90
47600;DHT22;33323;52.124;6.018;2023-04-21T08:58:44;10.50;99.90
47600;DHT22;33323;52.124;6.018;2023-04-21T09:01:11;10.50;99.90
47600;DHT22;33323;52.124;6.018;2023-04-21T09:03:39;10.50;99.90
47600;DHT22;33323;52.124;6.018;2023-04-21T09:06:08;10.50;99.90
47600;DHT22;33323;52.124;6.018;2023-04-21T09:08:47;10.50;99.90
47600;DHT22;33323;52.124;6.018;2023-04-21T09:11:21;10.50;99.90
47600;DHT22;33323;52.124;6.018;2023-04-21T09:13:48;10.40;99.90
47600;DHT22;33323;52.124;6.018;2023-04-21T09:16:18;10.40;99.90
47600;DHT22;33323;52.124;6.018;2023-04-21T09:18:49;10.40;99.90
47600;DHT22;33323;52.124;6.018;2023-04-21T09:21:17;10.40;99.90
47600;DHT22;33323;52.124;6.018;2023-04-21T09:23:50;10.50;99.90
47600;DHT22;33323;52.124;6.018;2023-04-21T09:26:19;10.60;99.90
47600;DHT22;33323;52.124;6.018;2023-04-21T09:28:50;10.60;99.90
47600;DHT22;33323;52.124;6.018;2023-04-21T09:31:22;10.60;99.90
47600;DHT22;33323;52.124;6.018;2023-04-21T09:33:57;10.70;99.90
47600;DHT22;33323;52.124;6.018;2023-04-21T09:36:29;10.80;99.90
47600;DHT22;33323;52.124;6.018;2023-04-21T09:38:59;10.90;99.90
47600;DHT22;33323;52.124;6.018;2023-04-21T09:41:31;11.00;99.90
47600;DHT22;33323;52.124;6.018;2023-04-21T09:43:58;11.10;99.90
47600;DHT22;33323;52.124;6.018;2023-04-21T09:46:29;11.20;99.90
47600;DHT22;33323;52.124;6.018;2023-04-21T09:49:02;11.30;99.90
47600;DHT22;33323;52.124;6.018;2023-04-21T09:51:30;11.40;99.90
47600;DHT22;33323;52.124;6.018;2023-04-21T09:54:20;11.60;99.90
47600;DHT22;33323;52.124;6.018;2023-04-21T09:56:52;11.60;99.90
47600;DHT22;33323;52.124;6.018;2023-04-21T09:59:32;11.60;99.90
47600;DHT22;33323;52.124;6.018;2023-04-21T10:02:04;11.60;99.90
47600;DHT22;33323;52.124;6.018;2023-04-21T10:04:34;11.70;99.90
47600;DHT22;33323;52.124;6.018;2023-04-21T10:07:02;11.80;99.90
47600;DHT22;33323;52.124;6.018;2023-04-21T10:09:34;11.90;99.90
47600;DHT22;33323;52.124;6.018;2023-04-21T10:12:06;12.00;99.90
47600;DHT22;33323;52.124;6.018;2023-04-21T10:14:35;12.00;99.90
47600;DHT22;33323;52.124;6.018;2023-04-21T10:17:04;12.20;99.90
47600;DHT22;33323;52.124;6.018;2023-04-21T10:19:35;12.20;99.90
47600;DHT22;33323;52.124;6.018;2023-04-21T10:22:07;12.20;99.90
47600;DHT22;33323;52.124;6.018;2023-04-21T10:24:39;12.20;99.90
47600;DHT22;33323;52.124;6.018;2023-04-21T10:27:11;12.10;99.90
47600;DHT22;33323;52.124;6.018;2023-04-21T10:29:38;12.10;99.90
47600;DHT22;33323;52.124;6.018;2023-04-21T10:35:21;12.10;99.90
47600;DHT22;33323;52.124;6.018;2023-04-21T10:37:49;12.20;99.90
47600;DHT22;33323;52.124;6.018;2023-04-21T10:43:47;12.20;99.90
47600;DHT22;33323;52.124;6.018;2023-04-21T10:46:36;12.30;99.90
47600;DHT22;33323;52.124;6.018;2023-04-21T10:49:23;12.30;99.90
47600;DHT22;33323;52.124;6.018;2023-04-21T10:54:25;12.50;99.90
47600;DHT22;33323;52.124;6.018;2023-04-21T10:56:54;12.50;99.90
47600;DHT22;33323;52.124;6.018;2023-04-21T10:59:23;12.40;99.90
47600;DHT22;33323;52.124;6.018;2023-04-21T11:01:52;12.40;99.90
47600;DHT22;33323;52.124;6.018;2023-04-21T11:04:20;12.50;99.90
47600;DHT22;33323;52.124;6.018;2023-04-21T11:07:11;12.80;99.90
47600;DHT22;33323;52.124;6.018;2023-04-21T11:10:05;12.90;99.90
47600;DHT22;33323;52.124;6.018;2023-04-21T11:12:36;12.90;99.90
47600;DHT22;33323;52.124;6.018;2023-04-21T11:15:09;12.80;99.90
47600;DHT22;33323;52.124;6.018;2023-04-21T11:17:37;12.70;99.90
47600;DHT22;33323;52.124;6.018;2023-04-21T11:20:06;12.60;99.90
47600;DHT22;33323;52.124;6.018;2023-04-21T11:22:35;12.60;99.90
47600;DHT22;33323;52.124;6.018;2023-04-21T11:25:03;12.70;99.90
47600;DHT22;33323;52.124;6.018;2023-04-21T11:27:30;12.70;99.90
47600;DHT22;33323;52.124;6.018;2023-04-21T11:29:57;12.80;99.90
47600;DHT22;33323;52.124;6.018;2023-04-21T11:32:24;12.90;99.90
47600;DHT22;33323;52.124;6.018;2023-04-21T11:34:53;13.00;99.90
47600;DHT22;33323;52.124;6.018;2023-04-21T11:37:25;13.10;99.90
47600;DHT22;33323;52.124;6.018;2023-04-21T11:39:59;13.20;99.90
47600;DHT22;33323;52.124;6.018;2023-04-21T11:42:27;13.40;99.90
47600;DHT22;33323;52.124;6.018;2023-04-21T11:44:55;13.60;99.90
47600;DHT22;33323;52.124;6.018;2023-04-21T11:47:27;13.60;99.90
47600;DHT22;33323;52.124;6.018;2023-04-21T11:49:56;13.70;99.90
47600;DHT22;33323;52.124;6.018;2023-04-21T11:52:31;14.00;99.90
47600;DHT22;33323;52.124;6.018;2023-04-21T11:55:01;14.40;99.90
47600;DHT22;33323;52.124;6.018;2023-04-21T11:57:30;14.50;99.90
47600;DHT22;33323;52.124;6.018;2023-04-21T12:00:04;14.60;99.90
47600;DHT22;33323;52.124;6.018;2023-04-21T12:02:32;14.50;99.90
47600;DHT22;33323;52.124;6.018;2023-04-21T12:07:37;14.20;99.90
47600;DHT22;33323;52.124;6.018;2023-04-21T12:10:12;14.20;99.90
47600;DHT22;33323;52.124;6.018;2023-04-21T12:12:41;14.30;99.90
47600;DHT22;33323;52.124;6.018;2023-04-21T12:15:11;14.40;99.90
47600;DHT22;33323;52.124;6.018;2023-04-21T12:17:53;14.30;99.90
47600;DHT22;33323;52.124;6.018;2023-04-21T12:20:22;14.40;99.90
47600;DHT22;33323;52.124;6.018;2023-04-21T12:22:50;14.40;99.90
47600;DHT22;33323;52.124;6.018;2023-04-21T12:25:18;14.20;99.90
47600;DHT22;33323;52.124;6.018;2023-04-21T12:27:52;14.20;99.90
47600;DHT22;33323;52.124;6.018;2023-04-21T12:30:22;14.30;99.90
47600;DHT22;33323;52.124;6.018;2023-04-21T12:32:49;14.30;99.90
47600;DHT22;33323;52.124;6.018;2023-04-21T12:35:18;14.40;99.90
47600;DHT22;33323;52.124;6.018;2023-04-21T12:37:45;14.20;99.90
47600;DHT22;33323;52.124;6.018;2023-04-21T12:40:12;14.10;99.90
47600;DHT22;33323;52.124;6.018;2023-04-21T12:42:39;14.20;99.90
47600;DHT22;33323;52.124;6.018;2023-04-21T12:45:06;14.30;99.90
47600;DHT22;33323;52.124;6.018;2023-04-21T12:47:34;14.50;99.90
47600;DHT22;33323;52.124;6.018;2023-04-21T12:50:03;14.70;99.90
47600;DHT22;33323;52.124;6.018;2023-04-21T12:52:30;15.10;99.90
47600;DHT22;33323;52.124;6.018;2023-04-21T12:54:57;15.30;99.90
47600;DHT22;33323;52.124;6.018;2023-04-21T12:57:24;15.60;99.90
47600;DHT22;33323;52.124;6.018;2023-04-21T12:59:51;16.00;99.90
47600;DHT22;33323;52.124;6.018;2023-04-21T13:02:18;16.20;99.90
47600;DHT22;33323;52.124;6.018;2023-04-21T13:04:45;16.30;99.90
47600;DHT22;33323;52.124;6.018;2023-04-21T13:07:12;16.10;99.90
47600;DHT22;33323;52.124;6.018;2023-04-21T13:09:41;16.20;99.90
47600;DHT22;33323;52.124;6.018;2023-04-21T13:12:08;16.20;99.90
47600;DHT22;33323;52.124;6.018;2023-04-21T13:14:35;16.00;99.90
47600;DHT22;33323;52.124;6.018;2023-04-21T13:17:02;16.00;99.90
47600;DHT22;33323;52.124;6.018;2023-04-21T13:19:29;16.20;99.90
47600;DHT22;33323;52.124;6.018;2023-04-21T13:21:57;16.30;99.90
47600;DHT22;33323;52.124;6.018;2023-04-21T13:24:24;16.30;99.90
47600;DHT22;33323;52.124;6.018;2023-04-21T13:26:52;16.30;99.90
47600;DHT22;33323;52.124;6.018;2023-04-21T13:29:20;16.20;99.90
47600;DHT22;33323;52.124;6.018;2023-04-21T13:31:47;16.10;99.90
47600;DHT22;33323;52.124;6.018;2023-04-21T13:34:14;16.20;99.90
47600;DHT22;33323;52.124;6.018;2023-04-21T13:36:41;16.30;99.90
47600;DHT22;33323;52.124;6.018;2023-04-21T13:39:09;16.50;99.90
47600;DHT22;33323;52.124;6.018;2023-04-21T13:41:37;16.50;99.90
47600;DHT22;33323;52.124;6.018;2023-04-21T13:44:04;16.50;99.90
47600;DHT22;33323;52.124;6.018;2023-04-21T13:46:31;16.60;99.90
47600;DHT22;33323;52.124;6.018;2023-04-21T13:48:58;16.80;99.90
47600;DHT22;33323;52.124;6.018;2023-04-21T13:51:26;16.90;99.90
47600;DHT22;33323;52.124;6.018;2023-04-21T13:53:53;16.80;99.90
47600;DHT22;33323;52.124;6.018;2023-04-21T13:56:20;16.80;99.90
47600;DHT22;33323;52.124;6.018;2023-04-21T13:58:47;17.00;99.90
47600;DHT22;33323;52.124;6.018;2023-04-21T14:01:14;17.00;99.90
47600;DHT22;33323;52.124;6.018;2023-04-21T14:03:41;16.90;99.90
47600;DHT22;33323;52.124;6.018;2023-04-21T14:06:09;16.60;99.90
47600;DHT22;33323;52.124;6.018;2023-04-21T14:08:36;16.40;99.90
47600;DHT22;33323;52.124;6.018;2023-04-21T14:11:03;16.40;99.90
47600;DHT22;33323;52.124;6.018;2023-04-21T14:13:32;16.40;99.90
47600;DHT22;33323;52.124;6.018;2023-04-21T14:16:07;16.30;99.90
47600;DHT22;33323;52.124;6.018;2023-04-21T14:18:34;16.30;99.90
47600;DHT22;33323;52.124;6.018;2023-04-21T14:21:03;16.30;99.90
47600;DHT22;33323;52.124;6.018;2023-04-21T14:23:30;16.20;99.90
47600;DHT22;33323;52.124;6.018;2023-04-21T14:25:57;16.30;99.90
47600;DHT22;33323;52.124;6.018;2023-04-21T14:28:24;16.30;99.90
47600;DHT22;33323;52.124;6.018;2023-04-21T14:30:51;16.30;99.90
47600;DHT22;33323;52.124;6.018;2023-04-21T14:33:18;16.20;99.90
47600;DHT22;33323;52.124;6.018;2023-04-21T14:35:45;16.20;99.90
47600;DHT22;33323;52.124;6.018;2023-04-21T14:38:12;16.20;99.90
47600;DHT22;33323;52.124;6.018;2023-04-21T14:40:40;16.20;99.90
47600;DHT22;33323;52.124;6.018;2023-04-21T14:43:06;16.20;99.90
47600;DHT22;33323;52.124;6.018;2023-04-21T14:45:37;16.30;99.90
47600;DHT22;33323;52.124;6.018;2023-04-21T14:48:04;16.30;99.90
47600;DHT22;33323;52.124;6.018;2023-04-21T14:50:31;16.30;99.90
47600;DHT22;33323;52.124;6.018;2023-04-21T14:52:58;16.40;99.90
47600;DHT22;33323;52.124;6.018;2023-04-21T14:55:26;16.50;99.90
47600;DHT22;33323;52.124;6.018;2023-04-21T14:57:53;16.60;99.90
47600;DHT22;33323;52.124;6.018;2023-04-21T15:00:20;16.70;99.90
47600;DHT22;33323;52.124;6.018;2023-04-21T15:02:49;16.80;99.90
47600;DHT22;33323;52.124;6.018;2023-04-21T15:05:17;16.80;99.90
47600;DHT22;33323;52.124;6.018;2023-04-21T15:07:44;16.80;99.90
47600;DHT22;33323;52.124;6.018;2023-04-21T15:10:12;16.60;99.90
47600;DHT22;33323;52.124;6.018;2023-04-21T15:12:40;16.60;99.90
47600;DHT22;33323;52.124;6.018;2023-04-21T15:15:07;16.70;99.90
47600;DHT22;33323;52.124;6.018;2023-04-21T15:17:35;16.60;99.90
47600;DHT22;33323;52.124;6.018;2023-04-21T15:20:02;16.70;99.90
47600;DHT22;33323;52.124;6.018;2023-04-21T15:22:30;16.70;99.90
47600;DHT22;33323;52.124;6.018;2023-04-21T15:24:57;16.70;99.90
47600;DHT22;33323;52.124;6.018;2023-04-21T15:27:24;16.70;99.90
47600;DHT22;33323;52.124;6.018;2023-04-21T15:29:51;16.60;99.90
47600;DHT22;33323;52.124;6.018;2023-04-21T15:32:18;16.70;99.90
47600;DHT22;33323;52.124;6.018;2023-04-21T15:34:45;16.70;99.90
47600;DHT22;33323;52.124;6.018;2023-04-21T15:37:12;16.80;99.90
47600;DHT22;33323;52.124;6.018;2023-04-21T15:39:40;16.90;99.90
47600;DHT22;33323;52.124;6.018;2023-04-21T15:42:07;16.90;99.90
47600;DHT22;33323;52.124;6.018;2023-04-21T15:44:35;16.80;99.90
47600;DHT22;33323;52.124;6.018;2023-04-21T15:47:05;16.70;99.90
47600;DHT22;33323;52.124;6.018;2023-04-21T15:49:32;16.60;99.90
47600;DHT22;33323;52.124;6.018;2023-04-21T15:52:01;16.50;99.90
47600;DHT22;33323;52.124;6.018;2023-04-21T15:54:28;16.50;99.90
47600;DHT22;33323;52.124;6.018;2023-04-21T15:56:56;16.50;99.90
47600;DHT22;33323;52.124;6.018;2023-04-21T15:59:24;16.60;99.90